Time;durP1;ratioP1;P1;durP2;ratioP2;P2;SDS_P1;SDS_P2;PMS_P1;PMS_P2;Temp;Humidity;BMP_temperature;BMP_pressure;BME280_temperature;BME280_humidity;BME280_pressure;Samples;Min_cycle;Max_cycle;Signal;HPM_P1;HPM_P2
2024/01/16 00:00:18;;;;;;;1.17;1.08;;;;;;;-6.08;100.00;92299.31;2079049;28;20452;-80
2024/01/16 00:01:26;;;;;;;1.20;1.10;;;;;;;-6.09;100.00;92303.78;2083378;28;20452;-80
2024/01/16 00:02:27;;;;;;;1.40;1.20;;;;;;;-6.18;100.00;92303.16;2092918;28;20458;-81
2024/01/16 00:03:28;;;;;;;0.90;0.90;;;;;;;-6.21;100.00;92300.47;2095450;28;20486;-80
2024/01/16 00:04:30;;;;;;;1.38;1.27;;;;;;;-6.18;100.00;92295.34;2079048;28;20031;-81
2024/01/16 00:05:31;;;;;;;1.58;1.40;;;;;;;-6.42;100.00;92298.03;2078969;28;20420;-81
2024/01/16 00:06:32;;;;;;;1.30;1.20;;;;;;;-6.34;100.00;92300.50;2093686;28;20573;-79
2024/01/16 00:07:35;;;;;;;1.98;1.50;;;;;;;-6.15;100.00;92296.53;2082776;28;22186;-82
2024/01/16 00:08:36;;;;;;;1.30;1.20;;;;;;;-6.26;100.00;92296.25;2103789;28;20040;-81
2024/01/16 00:09:37;;;;;;;1.63;1.20;;;;;;;-6.30;100.00;92292.03;2092765;28;20470;-82
2024/01/16 00:10:38;;;;;;;1.45;1.30;;;;;;;-6.43;100.00;92297.28;2084017;28;20051;-81
2024/01/16 00:11:43;;;;;;;2.83;1.17;;;;;;;-6.47;100.00;92287.88;2094408;28;20036;-81
2024/01/16 00:12:44;;;;;;;1.45;1.08;;;;;;;-6.47;100.00;92293.06;2088353;28;20658;-81
2024/01/16 00:13:45;;;;;;;1.60;1.33;;;;;;;-6.39;100.00;92290.31;2086491;28;20455;-81
2024/01/16 00:14:46;;;;;;;1.20;1.10;;;;;;;-6.42;100.00;92290.97;2070000;28;20474;-81
2024/01/16 00:15:47;;;;;;;1.20;1.10;;;;;;;-6.56;100.00;92288.00;2087830;28;20777;-81
2024/01/16 00:16:48;;;;;;;1.15;1.05;;;;;;;-6.60;100.00;92284.53;2083252;28;20028;-81
2024/01/16 00:17:49;;;;;;;1.23;1.10;;;;;;;-6.61;100.00;92286.38;2077421;28;20452;-81
2024/01/16 00:18:50;;;;;;;1.30;1.20;;;;;;;-6.66;100.00;92291.81;2081891;28;20476;-80
2024/01/16 00:19:51;;;;;;;1.05;1.00;;;;;;;-6.63;100.00;92291.16;2079710;28;20454;-80
2024/01/16 00:20:52;;;;;;;1.30;1.10;;;;;;;-6.65;100.00;92292.56;2102668;28;20077;-81
2024/01/16 00:21:54;;;;;;;1.20;1.10;;;;;;;-6.76;100.00;92292.28;2089414;28;20031;-81
2024/01/16 00:22:56;;;;;;;1.10;1.00;;;;;;;-6.73;100.00;92289.00;2104772;28;21129;-81
2024/01/16 00:23:56;;;;;;;1.38;1.15;;;;;;;-6.75;100.00;92293.03;2062052;28;20581;-80
2024/01/16 00:24:57;;;;;;;1.73;1.17;;;;;;;-6.77;100.00;92295.94;2070892;28;20899;-81
2024/01/16 00:25:58;;;;;;;1.00;0.90;;;;;;;-6.84;100.00;92290.56;2101102;28;20141;-80
2024/01/16 00:26:59;;;;;;;1.23;1.13;;;;;;;-6.83;100.00;92299.09;2088863;28;20058;-80
2024/01/16 00:28:01;;;;;;;1.30;1.20;;;;;;;-6.82;100.00;92296.16;2081558;28;21078;-81
2024/01/16 00:29:02;;;;;;;0.85;0.85;;;;;;;-6.83;100.00;92293.91;2079050;28;20060;-82
2024/01/16 00:30:04;;;;;;;1.38;1.25;;;;;;;-6.85;100.00;92302.78;2077950;28;21007;-81
2024/01/16 00:31:08;;;;;;;1.30;0.93;;;;;;;-6.86;100.00;92305.69;2079522;28;20033;-80
2024/01/16 00:32:09;;;;;;;1.30;1.20;;;;;;;-6.89;100.00;92307.13;2090069;28;20598;-80
2024/01/16 00:33:10;;;;;;;1.23;1.13;;;;;;;-7.01;100.00;92301.19;2097646;28;20462;-81
2024/01/16 00:34:11;;;;;;;3.08;1.30;;;;;;;-6.99;100.00;92299.75;2084851;28;20028;-80
2024/01/16 00:35:12;;;;;;;1.90;1.23;;;;;;;-7.10;100.00;92299.44;2105112;28;20450;-80
2024/01/16 00:36:13;;;;;;;1.40;1.30;;;;;;;-7.12;100.00;92298.25;2082738;28;20454;-81
2024/01/16 00:37:14;;;;;;;1.40;1.30;;;;;;;-7.06;100.00;92296.22;2079276;28;20032;-79
2024/01/16 00:38:15;;;;;;;1.70;1.17;;;;;;;-7.15;100.00;92297.06;2095499;28;20028;-81
2024/01/16 00:39:15;;;;;;;1.40;1.30;;;;;;;-7.26;100.00;92300.44;2088531;28;20107;-79
2024/01/16 00:40:16;;;;;;;0.90;0.90;;;;;;;-7.19;100.00;92296.22;2086781;28;20123;-80
2024/01/16 00:41:17;;;;;;;1.23;1.10;;;;;;;-7.13;100.00;92301.94;2081066;28;20101;-81
2024/01/16 00:42:20;;;;;;;1.20;1.10;;;;;;;-7.17;100.00;92290.69;2090017;28;20882;-81
2024/01/16 00:43:21;;;;;;;0.98;0.98;;;;;;;-7.20;100.00;92299.91;2103609;28;20552;-82
2024/01/16 00:44:22;;;;;;;1.52;1.20;;;;;;;-7.25;100.00;92297.50;2085946;28;20482;-81
2024/01/16 00:45:23;;;;;;;1.20;1.10;;;;;;;-7.30;100.00;92302.91;2101170;28;20481;-81
2024/01/16 00:46:23;;;;;;;0.95;0.95;;;;;;;-7.32;100.00;92299.88;2080768;28;20024;-81
2024/01/16 00:47:24;;;;;;;1.30;1.20;;;;;;;-7.45;100.00;92301.72;2094412;28;20790;-80
2024/01/16 00:48:25;;;;;;;0.80;0.80;;;;;;;-7.36;100.00;92301.63;2078810;28;20036;-81
2024/01/16 00:49:27;;;;;;;1.30;1.20;;;;;;;-7.42;100.00;92302.91;2079947;28;20064;-80
2024/01/16 00:50:29;;;;;;;1.13;1.00;;;;;;;-7.50;100.00;92301.19;2087493;28;20455;-80
2024/01/16 00:51:30;;;;;;;1.20;1.10;;;;;;;-7.40;100.00;92296.31;2084392;28;20982;-80
2024/01/16 00:52:33;;;;;;;1.98;1.10;;;;;;;-7.44;100.00;92303.22;2094739;28;20450;-80
2024/01/16 00:53:40;;;;;;;1.85;1.17;;;;;;;-7.39;100.00;92303.00;2075928;28;20554;-80
2024/01/16 00:54:41;;;;;;;1.40;1.30;;;;;;;-7.38;100.00;92303.75;2073468;28;20029;-80
2024/01/16 00:55:42;;;;;;;1.20;1.10;;;;;;;-7.50;100.00;92303.78;2095746;28;20998;-80
2024/01/16 00:56:46;;;;;;;0.90;0.90;;;;;;;-7.54;100.00;92293.28;2088501;28;20458;-80
2024/01/16 00:57:47;;;;;;;1.10;1.00;;;;;;;-7.46;100.00;92295.03;2087746;28;20824;-80
2024/01/16 00:58:48;;;;;;;1.13;1.02;;;;;;;-7.47;100.00;92305.72;2105488;28;20088;-80
2024/01/16 00:59:49;;;;;;;1.27;1.17;;;;;;;-7.56;100.00;92299.84;2085881;28;20507;-82
2024/01/16 01:00:50;;;;;;;1.20;0.95;;;;;;;-7.61;100.00;92304.19;2079930;28;20037;-80
2024/01/16 01:01:51;;;;;;;1.38;1.02;;;;;;;-7.71;100.00;92307.19;2081453;28;20029;-81
2024/01/16 01:02:52;;;;;;;1.30;1.20;;;;;;;-7.51;100.00;92303.00;2072344;28;20379;-81
2024/01/16 01:03:53;;;;;;;1.10;1.00;;;;;;;-7.42;100.00;92305.50;2094311;28;20461;-82
2024/01/16 01:04:54;;;;;;;1.48;1.38;;;;;;;-7.36;100.00;92302.38;2096941;28;20047;-81
2024/01/16 01:05:56;;;;;;;1.20;1.10;;;;;;;-7.48;100.00;92304.19;2095392;28;21003;-81
2024/01/16 01:06:57;;;;;;;1.17;1.08;;;;;;;-7.57;100.00;92300.94;2074511;28;20040;-80
2024/01/16 01:07:58;;;;;;;1.25;1.15;;;;;;;-7.66;100.00;92294.00;2081837;28;20435;-81
2024/01/16 01:09:00;;;;;;;0.80;0.80;;;;;;;-7.63;100.00;92308.19;2089190;28;20489;-81
2024/01/16 01:10:02;;;;;;;1.23;1.08;;;;;;;-7.65;100.00;92294.75;2069303;28;20455;-81
2024/01/16 01:11:04;;;;;;;1.05;1.00;;;;;;;-7.69;100.00;92305.03;2089665;28;20373;-81
2024/01/16 01:12:05;;;;;;;0.85;0.85;;;;;;;-7.86;100.00;92303.41;2096637;28;21029;-82
2024/01/16 01:13:06;;;;;;;0.85;0.85;;;;;;;-7.75;100.00;92300.38;2079189;28;20541;-80
2024/01/16 01:14:09;;;;;;;1.00;1.00;;;;;;;-7.73;100.00;92298.97;2088071;28;20477;-81
2024/01/16 01:15:10;;;;;;;1.00;1.00;;;;;;;-7.80;100.00;92300.59;2086197;28;20831;-80
2024/01/16 01:16:14;;;;;;;1.00;0.90;;;;;;;-7.80;100.00;92290.97;2084189;28;20068;-81
2024/01/16 01:17:15;;;;;;;0.88;0.80;;;;;;;-7.73;100.00;92295.63;2090449;28;20935;-81
2024/01/16 01:18:16;;;;;;;0.90;0.90;;;;;;;-7.73;100.00;92287.84;2082888;28;21899;-81
2024/01/16 01:19:18;;;;;;;1.13;1.08;;;;;;;-7.84;100.00;92289.34;2092661;28;21091;-81
2024/01/16 01:20:19;;;;;;;1.45;1.20;;;;;;;-7.88;100.00;92286.63;2077617;28;20446;-81
2024/01/16 01:21:20;;;;;;;0.90;0.90;;;;;;;-7.82;100.00;92285.34;2068603;28;20448;-81
2024/01/16 01:22:21;;;;;;;0.90;0.90;;;;;;;-7.84;100.00;92290.09;2092714;28;20462;-81
2024/01/16 01:23:28;;;;;;;1.42;1.20;;;;;;;-7.82;100.00;92285.34;2080485;28;20482;-81
2024/01/16 01:24:29;;;;;;;1.10;0.90;;;;;;;-7.92;100.00;92286.50;2097185;28;20464;-81
2024/01/16 01:25:30;;;;;;;2.22;0.95;;;;;;;-7.87;100.00;92285.53;2088506;28;20619;-81
2024/01/16 01:26:31;;;;;;;0.80;0.80;;;;;;;-7.88;100.00;92277.00;2082720;28;20966;-82
2024/01/16 01:27:31;;;;;;;1.02;1.00;;;;;;;-7.87;100.00;92282.94;2078454;28;20492;-80
2024/01/16 01:28:39;;;;;;;0.75;0.75;;;;;;;-7.93;100.00;92281.66;2063600;28;20091;-82
2024/01/16 01:29:40;;;;;;;1.35;1.00;;;;;;;-8.03;100.00;92287.22;2073442;28;20043;-81
2024/01/16 01:30:41;;;;;;;1.00;0.90;;;;;;;-8.19;100.00;92281.91;2087081;28;20534;-82
2024/01/16 01:31:47;;;;;;;0.82;0.82;;;;;;;-8.17;100.00;92272.72;2081278;28;20024;-81
2024/01/16 01:32:48;;;;;;;0.90;0.90;;;;;;;-8.19;100.00;92282.66;2090628;28;20082;-81
2024/01/16 01:33:49;;;;;;;0.70;0.70;;;;;;;-8.17;100.00;92280.50;2079401;28;20564;-80
2024/01/16 01:34:50;;;;;;;0.80;0.80;;;;;;;-8.14;100.00;92289.47;2077323;28;20375;-82
2024/01/16 01:35:50;;;;;;;0.90;0.90;;;;;;;-8.13;100.00;92294.31;2081144;28;20110;-81
2024/01/16 01:36:51;;;;;;;0.70;0.70;;;;;;;-8.22;100.00;92290.31;2073712;28;20025;-81
2024/01/16 01:37:52;;;;;;;0.93;0.90;;;;;;;-8.38;100.00;92303.16;2075795;28;20654;-80
2024/01/16 01:38:53;;;;;;;1.15;1.05;;;;;;;-8.48;100.00;92304.28;2079187;28;20112;-82
2024/01/16 01:39:55;;;;;;;0.75;0.75;;;;;;;-8.40;100.00;92300.09;2097290;28;20462;-81
2024/01/16 01:40:56;;;;;;;1.00;0.80;;;;;;;-8.32;100.00;92299.25;2096205;28;20713;-81
2024/01/16 01:41:57;;;;;;;0.90;0.90;;;;;;;-8.23;100.00;92309.53;2087170;28;20474;-81
2024/01/16 01:42:58;;;;;;;1.30;0.95;;;;;;;-8.24;100.00;92315.78;2080452;28;20824;-81
2024/01/16 01:43:59;;;;;;;0.80;0.80;;;;;;;-8.28;100.00;92317.50;2106668;28;20034;-81
2024/01/16 01:45:00;;;;;;;0.88;0.73;;;;;;;-8.21;100.00;92321.13;2096643;28;20020;-81
2024/01/16 01:46:09;;;;;;;0.80;0.77;;;;;;;-8.20;100.00;92319.28;2093674;28;20435;-82
2024/01/16 01:47:11;;;;;;;1.00;1.00;;;;;;;-8.05;100.00;92315.31;2070916;28;20033;-81
2024/01/16 01:48:12;;;;;;;1.10;0.80;;;;;;;-8.20;100.00;92321.88;2082269;28;20533;-82
2024/01/16 01:49:15;;;;;;;0.93;0.90;;;;;;;-8.33;100.00;92325.47;2107355;28;20449;-81
2024/01/16 01:50:17;;;;;;;1.20;1.10;;;;;;;-8.17;100.00;92328.97;2094640;28;20470;-82
2024/01/16 01:51:19;;;;;;;1.00;0.90;;;;;;;-8.08;100.00;92324.47;2107236;28;20457;-81
2024/01/16 01:52:20;;;;;;;1.58;0.90;;;;;;;-8.30;100.00;92328.19;2079716;28;20518;-82
2024/01/16 01:53:21;;;;;;;1.00;0.90;;;;;;;-8.19;100.00;92326.72;2067430;28;20507;-81
2024/01/16 01:54:24;;;;;;;1.40;1.30;;;;;;;-8.20;100.00;92333.00;2084965;28;21060;-80
2024/01/16 01:55:25;;;;;;;1.65;0.80;;;;;;;-7.97;100.00;92332.63;2095415;28;21001;-81
2024/01/16 01:56:27;;;;;;;0.90;0.90;;;;;;;-7.99;100.00;92338.16;2087691;28;20534;-81
2024/01/16 01:57:28;;;;;;;1.20;1.10;;;;;;;-8.01;100.00;92342.13;2089974;28;20443;-81
2024/01/16 01:58:29;;;;;;;1.20;1.10;;;;;;;-8.13;100.00;92330.63;2091017;28;20457;-81
2024/01/16 01:59:31;;;;;;;1.00;0.90;;;;;;;-8.16;100.00;92339.06;2112781;28;20560;-81
2024/01/16 02:00:33;;;;;;;0.90;0.90;;;;;;;-8.24;100.00;92339.13;2097096;28;20477;-80
2024/01/16 02:01:34;;;;;;;0.85;0.85;;;;;;;-8.22;100.00;92335.13;2087404;28;20506;-81
2024/01/16 02:02:42;;;;;;;1.10;0.90;;;;;;;-8.26;100.00;92334.25;2104688;28;20458;-81
2024/01/16 02:03:44;;;;;;;1.17;1.08;;;;;;;-8.28;100.00;92338.25;2097415;28;20462;-81
2024/01/16 02:04:46;;;;;;;1.33;0.98;;;;;;;-8.28;100.00;92336.41;2081118;28;20466;-81
2024/01/16 02:05:47;;;;;;;1.08;0.98;;;;;;;-8.32;100.00;92335.53;2078937;28;20459;-81
2024/01/16 02:06:49;;;;;;;1.38;1.15;;;;;;;-8.42;100.00;92335.94;2082960;28;20559;-82
2024/01/16 02:07:50;;;;;;;0.93;0.93;;;;;;;-8.00;100.00;92343.63;2093113;28;20584;-82
2024/01/16 02:08:51;;;;;;;0.93;0.90;;;;;;;-7.54;100.00;92336.63;2090439;28;20553;-81
2024/01/16 02:09:52;;;;;;;0.82;0.82;;;;;;;-7.74;100.00;92333.00;2083576;28;20040;-81
2024/01/16 02:10:53;;;;;;;1.08;0.98;;;;;;;-7.96;100.00;92331.56;2083419;28;20412;-82
2024/01/16 02:11:54;;;;;;;1.75;1.20;;;;;;;-7.98;100.00;92338.91;2086822;28;20529;-81
2024/01/16 02:12:55;;;;;;;1.30;1.20;;;;;;;-7.94;100.00;92337.19;2081049;28;20026;-81
2024/01/16 02:13:56;;;;;;;1.30;1.20;;;;;;;-7.81;100.00;92330.97;2087684;28;20482;-80
2024/01/16 02:14:57;;;;;;;1.10;1.00;;;;;;;-7.91;100.00;92345.06;2088830;28;20481;-82
2024/01/16 02:15:58;;;;;;;1.40;1.00;;;;;;;-7.96;100.00;92350.47;2088558;28;20075;-81
2024/01/16 02:16:59;;;;;;;1.33;1.15;;;;;;;-7.92;100.00;92343.56;2091255;28;20806;-80
2024/01/16 02:18:00;;;;;;;1.30;1.00;;;;;;;-7.56;100.00;92349.16;2104213;28;20499;-81
2024/01/16 02:19:01;;;;;;;1.08;1.05;;;;;;;-7.61;100.00;92353.47;2088272;28;20036;-81
2024/01/16 02:20:02;;;;;;;1.08;1.08;;;;;;;-7.56;100.00;92341.38;2088419;28;20406;-82
2024/01/16 02:21:05;;;;;;;1.27;1.10;;;;;;;-7.66;100.00;92343.31;2097131;28;20024;-81
2024/01/16 02:22:12;;;;;;;1.30;1.20;;;;;;;-7.88;100.00;92336.66;2084691;28;20862;-82
2024/01/16 02:23:14;;;;;;;1.02;0.98;;;;;;;-7.92;100.00;92345.41;2096008;28;20469;-80
2024/01/16 02:25:49;;;;;;;;;;;;;;;-8.80;100.00;92347.16;2137831;27;20416;-80
2024/01/16 02:26:50;;;;;;;1.30;1.13;;;;;;;-8.42;100.00;92338.53;2127632;27;19912;-79
2024/01/16 02:27:51;;;;;;;1.20;0.90;;;;;;;-8.45;100.00;92336.56;2111061;28;20055;-80
2024/01/16 02:28:52;;;;;;;1.38;0.77;;;;;;;-8.64;100.00;92334.44;2109857;28;20469;-79
2024/01/16 02:29:53;;;;;;;1.05;0.95;;;;;;;-8.83;100.00;92327.06;2127242;27;20123;-80
2024/01/16 02:30:54;;;;;;;1.30;1.20;;;;;;;-8.82;100.00;92327.81;2120790;27;21119;-80
2024/01/16 02:31:55;;;;;;;1.25;1.15;;;;;;;-8.81;100.00;92326.78;2119117;27;20205;-79
2024/01/16 02:32:56;;;;;;;1.90;1.30;;;;;;;-8.94;100.00;92331.09;2121158;28;20871;-81
2024/01/16 02:33:58;;;;;;;1.20;1.10;;;;;;;-8.60;100.00;92337.91;2120811;27;20475;-80
2024/01/16 02:34:59;;;;;;;0.98;0.98;;;;;;;-8.72;100.00;92333.41;2127649;27;20444;-79
2024/01/16 02:36:00;;;;;;;1.77;1.20;;;;;;;-8.79;100.00;92333.13;2128258;27;20470;-79
2024/01/16 02:37:01;;;;;;;1.30;1.20;;;;;;;-8.92;100.00;92332.28;2121282;27;21698;-80
2024/01/16 02:38:02;;;;;;;1.20;1.13;;;;;;;-8.90;100.00;92337.19;2114764;28;20031;-81
2024/01/16 02:39:03;;;;;;;1.02;0.93;;;;;;;-8.88;100.00;92329.84;2099375;28;21049;-80
2024/01/16 02:40:06;;;;;;;0.93;0.90;;;;;;;-8.88;100.00;92337.59;2108517;28;20034;-80
2024/01/16 02:41:07;;;;;;;1.30;1.20;;;;;;;-9.00;100.00;92337.53;2118308;27;20492;-82
2024/01/16 02:42:08;;;;;;;1.40;1.30;;;;;;;-8.85;100.00;92346.59;2118610;27;20514;-80
2024/01/16 02:43:09;;;;;;;1.00;1.00;;;;;;;-8.81;100.00;92331.94;2118669;27;20448;-79
2024/01/16 02:44:10;;;;;;;1.38;1.08;;;;;;;-8.90;100.00;92342.34;2106104;28;20035;-80
2024/01/16 02:45:12;;;;;;;1.10;1.00;;;;;;;-9.00;100.00;92340.91;2111381;28;20027;-81
2024/01/16 02:46:14;;;;;;;1.30;1.20;;;;;;;-9.05;100.00;92342.88;2110842;28;20111;-80
2024/01/16 02:47:15;;;;;;;1.45;1.10;;;;;;;-9.06;100.00;92346.56;2111685;27;20552;-79
2024/01/16 02:48:16;;;;;;;1.10;1.00;;;;;;;-9.07;100.00;92343.19;2111147;28;20532;-81
2024/01/16 02:49:17;;;;;;;1.30;1.20;;;;;;;-9.07;100.00;92338.03;2098070;28;20477;-80
2024/01/16 02:50:20;;;;;;;1.10;1.00;;;;;;;-9.08;100.00;92333.94;2109200;28;20015;-80
2024/01/16 02:51:21;;;;;;;1.05;1.00;;;;;;;-9.15;100.00;92337.00;2111439;28;20426;-81
2024/01/16 02:52:23;;;;;;;1.30;1.20;;;;;;;-9.41;100.00;92344.13;2093402;28;20453;-80
2024/01/16 02:53:25;;;;;;;1.27;1.17;;;;;;;-9.29;100.00;92341.63;2116467;27;20453;-82
2024/01/16 02:54:26;;;;;;;1.20;1.10;;;;;;;-9.26;100.00;92338.44;2118140;27;20466;-79
2024/01/16 02:55:27;;;;;;;0.90;0.90;;;;;;;-9.36;100.00;92335.41;2115593;27;20448;-81
2024/01/16 02:56:28;;;;;;;1.20;1.10;;;;;;;-9.30;100.00;92329.78;2129688;27;20094;-79
2024/01/16 02:57:29;;;;;;;1.40;1.30;;;;;;;-9.38;100.00;92341.66;2101556;28;20031;-81
2024/01/16 02:58:33;;;;;;;1.02;1.00;;;;;;;-9.41;100.00;92326.75;2109718;28;20106;-80
2024/01/16 02:59:34;;;;;;;1.35;1.10;;;;;;;-9.41;100.00;92331.94;2100468;28;20961;-80
2024/01/16 03:00:35;;;;;;;0.95;0.93;;;;;;;-9.49;100.00;92334.56;2113100;28;20442;-80
2024/01/16 03:01:36;;;;;;;1.17;1.15;;;;;;;-9.60;100.00;92336.72;2109861;28;20019;-80
2024/01/16 03:02:37;;;;;;;1.33;1.10;;;;;;;-9.46;100.00;92341.69;2101943;27;20487;-79
2024/01/16 03:03:39;;;;;;;0.88;0.88;;;;;;;-9.46;100.00;92339.88;2127854;27;20015;-81
2024/01/16 03:04:41;;;;;;;1.20;1.10;;;;;;;-9.51;100.00;92337.47;2097072;28;20441;-80
2024/01/16 03:05:42;;;;;;;1.08;0.93;;;;;;;-9.41;100.00;92338.94;2102599;28;21085;-79
2024/01/16 03:06:43;;;;;;;1.23;1.13;;;;;;;-9.53;100.00;92334.41;2101420;28;20453;-79
2024/01/16 03:07:44;;;;;;;1.17;1.10;;;;;;;-9.48;100.00;92336.06;2105263;27;21342;-79
2024/01/16 03:08:45;;;;;;;1.35;1.10;;;;;;;-9.45;100.00;92338.78;2119374;28;20042;-79
2024/01/16 03:09:46;;;;;;;2.35;1.13;;;;;;;-9.47;100.00;92332.44;2100841;28;20077;-81
2024/01/16 03:10:47;;;;;;;1.60;1.20;;;;;;;-9.45;100.00;92331.03;2111034;28;20055;-80
2024/01/16 03:11:48;;;;;;;1.25;1.15;;;;;;;-9.43;100.00;92328.16;2092282;28;20454;-81
2024/01/16 03:12:49;;;;;;;1.05;0.93;;;;;;;-9.46;100.00;92331.34;2102329;27;20624;-80
2024/01/16 03:13:53;;;;;;;1.35;1.27;;;;;;;-8.99;100.00;92339.06;2115475;28;20437;-80
2024/01/16 03:14:54;;;;;;;1.25;1.15;;;;;;;-9.19;100.00;92336.09;2087306;28;20546;-80
2024/01/16 03:15:55;;;;;;;0.80;0.80;;;;;;;-9.53;100.00;92341.41;2096624;28;20454;-80
2024/01/16 03:16:56;;;;;;;0.70;0.70;;;;;;;-9.48;100.00;92341.25;2097427;28;20480;-81
2024/01/16 03:17:58;;;;;;;1.05;0.90;;;;;;;-9.44;100.00;92347.31;2110199;28;20456;-80
2024/01/16 03:18:59;;;;;;;1.17;1.13;;;;;;;-9.39;100.00;92350.50;2107711;28;20027;-80
2024/01/16 03:20:01;;;;;;;1.10;1.00;;;;;;;-9.47;100.00;92351.28;2099291;28;20958;-79
2024/01/16 03:21:02;;;;;;;0.82;0.82;;;;;;;-9.58;100.00;92352.69;2097974;28;20405;-81
2024/01/16 03:22:04;;;;;;;1.00;1.00;;;;;;;-9.52;100.00;92350.72;2086946;28;20818;-80
2024/01/16 03:23:05;;;;;;;0.80;0.80;;;;;;;-9.61;100.00;92360.31;2102788;28;21006;-79
2024/01/16 03:24:06;;;;;;;1.17;1.08;;;;;;;-9.64;100.00;92356.53;2087669;28;20834;-79
2024/01/16 03:25:08;;;;;;;0.80;0.80;;;;;;;-9.78;100.00;92348.97;2101025;28;20449;-80
2024/01/16 03:26:13;;;;;;;0.80;0.80;;;;;;;-9.74;100.00;92352.44;2115067;28;20088;-80
2024/01/16 03:27:14;;;;;;;0.80;0.80;;;;;;;-9.76;100.00;92339.06;2097517;28;20446;-80
2024/01/16 03:28:16;;;;;;;0.85;0.85;;;;;;;-9.83;100.00;92343.97;2101304;28;20865;-81
2024/01/16 03:29:17;;;;;;;0.88;0.88;;;;;;;-9.63;100.00;92338.09;2084157;28;20446;-80
2024/01/16 03:30:18;;;;;;;0.90;0.90;;;;;;;-9.70;100.00;92340.44;2096545;28;20542;-80
2024/01/16 03:31:21;;;;;;;1.05;0.95;;;;;;;-9.75;100.00;92343.16;2092835;28;20447;-80
2024/01/16 03:32:22;;;;;;;1.10;1.10;;;;;;;-9.83;100.00;92343.16;2088264;28;20449;-79
2024/01/16 03:33:23;;;;;;;1.08;1.05;;;;;;;-9.76;100.00;92339.06;2086143;28;20523;-80
2024/01/16 03:34:24;;;;;;;0.80;0.80;;;;;;;-9.80;100.00;92343.31;2098285;28;20052;-81
2024/01/16 03:35:25;;;;;;;1.10;1.00;;;;;;;-9.84;100.00;92337.25;2089483;28;20825;-80
2024/01/16 03:36:26;;;;;;;1.10;0.95;;;;;;;-9.89;100.00;92340.00;2096008;28;20055;-82
2024/01/16 03:37:27;;;;;;;0.90;0.90;;;;;;;-9.82;100.00;92342.13;2093463;28;20533;-80
2024/01/16 03:38:28;;;;;;;0.95;0.80;;;;;;;-9.99;100.00;92333.34;2113273;28;20030;-80
2024/01/16 03:39:29;;;;;;;1.98;0.90;;;;;;;-9.96;100.00;92324.97;2094181;28;20473;-79
2024/01/16 03:40:33;;;;;;;0.88;0.88;;;;;;;-9.84;100.00;92331.31;2086441;28;20795;-80
2024/01/16 03:41:34;;;;;;;0.88;0.88;;;;;;;-9.75;100.00;92335.41;2104440;28;20035;-80
2024/01/16 03:42:35;;;;;;;0.80;0.80;;;;;;;-9.86;100.00;92331.63;2093393;28;20475;-79
2024/01/16 03:43:36;;;;;;;1.10;1.00;;;;;;;-9.94;100.00;92329.81;2087175;28;20112;-79
2024/01/16 03:44:40;;;;;;;1.23;1.10;;;;;;;-9.87;100.00;92329.38;2097417;28;20036;-80
2024/01/16 03:45:42;;;;;;;0.82;0.82;;;;;;;-10.06;100.00;92327.13;2089231;28;20516;-80
2024/01/16 03:46:42;;;;;;;0.80;0.80;;;;;;;-9.86;100.00;92330.88;2098785;28;20458;-79
2024/01/16 03:47:44;;;;;;;0.90;0.75;;;;;;;-9.88;100.00;92336.34;2104431;28;20460;-81
2024/01/16 03:48:45;;;;;;;0.95;0.80;;;;;;;-9.99;100.00;92330.00;2103508;28;20424;-78
2024/01/16 03:49:46;;;;;;;0.80;0.80;;;;;;;-10.00;100.00;92329.25;2095360;28;20990;-79
2024/01/16 03:50:47;;;;;;;0.77;0.77;;;;;;;-10.02;100.00;92333.94;2077434;28;20112;-79
2024/01/16 03:51:48;;;;;;;0.80;0.80;;;;;;;-9.83;100.00;92325.88;2096450;28;20067;-79
2024/01/16 03:52:49;;;;;;;1.00;1.00;;;;;;;-9.91;100.00;92331.81;2093259;28;20563;-80
2024/01/16 03:53:50;;;;;;;1.00;0.90;;;;;;;-10.01;100.00;92332.13;2087250;28;20512;-80
2024/01/16 03:54:51;;;;;;;0.80;0.80;;;;;;;-10.01;100.00;92325.13;2088080;28;20032;-79
2024/01/16 03:55:52;;;;;;;0.68;0.68;;;;;;;-10.11;100.00;92335.03;2077131;28;20116;-79
2024/01/16 03:56:53;;;;;;;0.70;0.70;;;;;;;-10.13;100.00;92319.84;2106146;28;20114;-80
2024/01/16 03:57:54;;;;;;;0.95;0.90;;;;;;;-10.17;100.00;92324.84;2095303;28;20457;-80
2024/01/16 03:58:55;;;;;;;1.15;0.88;;;;;;;-10.07;100.00;92323.00;2105146;28;20438;-80
2024/01/16 03:59:56;;;;;;;0.82;0.70;;;;;;;-10.04;100.00;92322.41;2076904;28;20012;-79
2024/01/16 04:00:57;;;;;;;0.80;0.80;;;;;;;-10.20;100.00;92330.63;2100600;28;20038;-81
2024/01/16 04:01:58;;;;;;;1.02;0.90;;;;;;;-10.26;100.00;92329.31;2090848;28;20035;-80
2024/01/16 04:02:59;;;;;;;0.85;0.85;;;;;;;-10.35;100.00;92333.72;2094217;28;20471;-80
2024/01/16 04:04:00;;;;;;;1.42;1.05;;;;;;;-10.31;100.00;92319.13;2105004;28;20073;-80
2024/01/16 04:05:01;;;;;;;1.02;0.90;;;;;;;-10.27;100.00;92320.03;2092765;28;20777;-82
2024/01/16 04:06:02;;;;;;;1.75;0.73;;;;;;;-10.17;100.00;92324.84;2087258;28;20068;-81
2024/01/16 04:07:03;;;;;;;0.93;0.80;;;;;;;-10.28;100.00;92312.59;2091306;28;20447;-79
2024/01/16 04:08:04;;;;;;;0.80;0.80;;;;;;;-10.43;100.00;92319.75;2082421;28;20451;-80
2024/01/16 04:09:05;;;;;;;1.23;0.80;;;;;;;-10.30;100.00;92318.06;2102016;28;21231;-80
2024/01/16 04:10:07;;;;;;;0.90;0.90;;;;;;;-10.26;100.00;92321.56;2092003;28;20590;-80
2024/01/16 04:11:17;;;;;;;0.75;0.73;;;;;;;-10.31;100.00;92321.72;2094178;28;20438;-81
2024/01/16 04:12:18;;;;;;;0.70;0.70;;;;;;;-10.25;100.00;92323.06;2079162;28;20850;-80
2024/01/16 04:13:19;;;;;;;1.17;1.08;;;;;;;-10.30;100.00;92312.91;2085549;28;20078;-81
2024/01/16 04:14:20;;;;;;;1.00;0.90;;;;;;;-10.22;100.00;92312.09;2101341;28;20073;-80
2024/01/16 04:15:21;;;;;;;1.00;1.00;;;;;;;-10.25;100.00;92317.91;2092375;28;20925;-80
2024/01/16 04:16:22;;;;;;;0.95;0.80;;;;;;;-10.27;100.00;92320.03;2104072;28;20449;-79
2024/01/16 04:17:23;;;;;;;0.65;0.65;;;;;;;-10.28;100.00;92310.75;2103815;28;20115;-81
2024/01/16 04:18:24;;;;;;;0.70;0.70;;;;;;;-10.33;100.00;92310.91;2094521;28;20039;-81
2024/01/16 04:19:25;;;;;;;0.80;0.80;;;;;;;-10.41;100.00;92325.34;2111995;28;20651;-81
2024/01/16 04:20:26;;;;;;;0.80;0.80;;;;;;;-10.35;100.00;92323.41;2096746;28;20061;-81
2024/01/16 04:21:28;;;;;;;0.80;0.80;;;;;;;-10.39;100.00;92322.47;2080193;28;20044;-80
2024/01/16 04:22:29;;;;;;;1.33;0.80;;;;;;;-10.22;100.00;92332.78;2090939;28;20040;-80
2024/01/16 04:23:30;;;;;;;0.63;0.63;;;;;;;-10.22;100.00;92319.84;2092454;28;20929;-80
2024/01/16 04:24:31;;;;;;;0.85;0.80;;;;;;;-10.24;100.00;92327.13;2105529;28;20032;-81
2024/01/16 04:25:32;;;;;;;1.48;0.88;;;;;;;-10.38;100.00;92323.25;2079198;28;20053;-80
2024/01/16 04:26:36;;;;;;;0.90;0.90;;;;;;;-10.18;100.00;92320.00;2084371;28;20028;-80
2024/01/16 04:27:39;;;;;;;1.13;1.00;;;;;;;-10.32;100.00;92327.19;2096638;28;20197;-82
2024/01/16 04:28:41;;;;;;;0.85;0.85;;;;;;;-10.28;100.00;92331.41;2077808;28;20471;-81
2024/01/16 04:29:43;;;;;;;0.80;0.80;;;;;;;-10.26;100.00;92329.31;2088331;28;20486;-81
2024/01/16 04:30:44;;;;;;;2.33;1.33;;;;;;;-10.19;100.00;92326.22;2094919;28;20551;-80
2024/01/16 04:31:45;;;;;;;1.83;0.90;;;;;;;-10.12;100.00;92315.44;2084800;28;21096;-80
2024/01/16 04:32:46;;;;;;;1.25;0.98;;;;;;;-10.07;100.00;92316.03;2097686;28;20480;-80
2024/01/16 04:33:48;;;;;;;1.10;1.00;;;;;;;-10.07;100.00;92310.09;2094565;28;20079;-80
2024/01/16 04:34:49;;;;;;;0.88;0.85;;;;;;;-10.15;100.00;92309.78;2113519;28;20028;-80
2024/01/16 04:35:51;;;;;;;1.08;0.98;;;;;;;-10.17;100.00;92306.78;2098077;28;20496;-80
2024/01/16 04:36:52;;;;;;;1.05;0.95;;;;;;;-10.19;100.00;92313.31;2089011;28;20578;-80
2024/01/16 04:37:53;;;;;;;1.05;0.95;;;;;;;-10.21;100.00;92312.88;2104042;28;20032;-81
2024/01/16 04:38:54;;;;;;;1.00;1.00;;;;;;;-10.19;100.00;92310.72;2085400;28;20575;-81
2024/01/16 04:39:55;;;;;;;0.80;0.80;;;;;;;-10.13;100.00;92306.94;2092096;28;20028;-81
2024/01/16 04:40:56;;;;;;;0.98;0.93;;;;;;;-10.19;100.00;92308.88;2083111;28;20024;-80
2024/01/16 04:41:57;;;;;;;1.20;1.10;;;;;;;-10.15;100.00;92314.22;2105338;28;20027;-80
2024/01/16 04:42:58;;;;;;;1.40;0.80;;;;;;;-10.26;100.00;92311.22;2083680;28;20440;-79
2024/01/16 04:44:00;;;;;;;1.02;1.00;;;;;;;-10.24;100.00;92316.81;2077848;28;20435;-80
2024/01/16 04:45:01;;;;;;;0.90;0.90;;;;;;;-10.36;100.00;92316.69;2103697;28;20441;-80
2024/01/16 04:46:02;;;;;;;1.00;1.00;;;;;;;-10.33;100.00;92310.91;2102531;28;20465;-80
2024/01/16 04:47:03;;;;;;;0.80;0.80;;;;;;;-10.45;100.00;92308.19;2108686;28;20039;-81